sensor_id;sensor_type;location;lat;lon;timestamp;pressure;altitude;pressure_sealevel;temperature;humidity
71145;BME280;58812;47.698;17.726;2024-03-17T00:01:04;100507.13;;;9.81;97.61
71145;BME280;58812;47.698;17.726;2024-03-17T00:03:30;100506.41;;;9.79;98.08
71145;BME280;58812;47.698;17.726;2024-03-17T00:05:57;100511.22;;;9.85;97.93
71145;BME280;58812;47.698;17.726;2024-03-17T00:08:23;100510.22;;;9.86;98.32
71145;BME280;58812;47.698;17.726;2024-03-17T00:10:52;100507.28;;;9.89;98.39
71145;BME280;58812;47.698;17.726;2024-03-17T00:13:18;100516.75;;;10.03;97.49
71145;BME280;58812;47.698;17.726;2024-03-17T00:15:43;100522.56;;;10.08;97.55
71145;BME280;58812;47.698;17.726;2024-03-17T00:18:10;100518.75;;;10.11;97.36
71145;BME280;58812;47.698;17.726;2024-03-17T00:20:36;100526.22;;;10.17;97.32
71145;BME280;58812;47.698;17.726;2024-03-17T00:23:02;100524.25;;;10.19;97.36
71145;BME280;58812;47.698;17.726;2024-03-17T00:25:28;100525.81;;;10.22;96.97
71145;BME280;58812;47.698;17.726;2024-03-17T00:27:54;100536.66;;;10.20;97.53
71145;BME280;58812;47.698;17.726;2024-03-17T00:30:22;100537.63;;;10.19;97.81
71145;BME280;58812;47.698;17.726;2024-03-17T00:32:47;100539.59;;;10.17;97.99
71145;BME280;58812;47.698;17.726;2024-03-17T00:35:13;100534.78;;;10.11;98.67
71145;BME280;58812;47.698;17.726;2024-03-17T00:37:48;100546.03;;;10.05;99.49
71145;BME280;58812;47.698;17.726;2024-03-17T00:40:14;100540.69;;;10.05;99.41
71145;BME280;58812;47.698;17.726;2024-03-17T00:42:41;100544.91;;;9.98;100.00
71145;BME280;58812;47.698;17.726;2024-03-17T00:45:07;100550.78;;;9.92;100.00
71145;BME280;58812;47.698;17.726;2024-03-17T00:47:32;100549.66;;;9.84;100.00
71145;BME280;58812;47.698;17.726;2024-03-17T00:49:58;100547.66;;;9.86;100.00
71145;BME280;58812;47.698;17.726;2024-03-17T00:52:23;100556.94;;;9.82;100.00
71145;BME280;58812;47.698;17.726;2024-03-17T00:54:49;100558.63;;;9.83;100.00
71145;BME280;58812;47.698;17.726;2024-03-17T00:57:15;100561.44;;;9.82;100.00
71145;BME280;58812;47.698;17.726;2024-03-17T00:59:43;100572.13;;;9.82;100.00
71145;BME280;58812;47.698;17.726;2024-03-17T01:02:10;100554.41;;;9.81;100.00
71145;BME280;58812;47.698;17.726;2024-03-17T01:04:37;100558.75;;;9.82;100.00
71145;BME280;58812;47.698;17.726;2024-03-17T01:07:03;100555.25;;;9.81;100.00
71145;BME280;58812;47.698;17.726;2024-03-17T01:09:29;100564.25;;;9.80;100.00
71145;BME280;58812;47.698;17.726;2024-03-17T01:11:54;100559.59;;;9.82;100.00
71145;BME280;58812;47.698;17.726;2024-03-17T01:14:20;100551.31;;;9.85;100.00
71145;BME280;58812;47.698;17.726;2024-03-17T01:16:45;100548.66;;;9.85;100.00
71145;BME280;58812;47.698;17.726;2024-03-17T01:19:11;100555.16;;;9.93;99.56
71145;BME280;58812;47.698;17.726;2024-03-17T01:21:36;100558.91;;;9.90;99.36
71145;BME280;58812;47.698;17.726;2024-03-17T01:24:02;100567.94;;;9.89;98.89
71145;BME280;58812;47.698;17.726;2024-03-17T01:26:28;100570.59;;;9.89;97.84
71145;BME280;58812;47.698;17.726;2024-03-17T01:28:53;100576.94;;;9.88;97.18
71145;BME280;58812;47.698;17.726;2024-03-17T01:31:18;100573.41;;;9.87;96.58
71145;BME280;58812;47.698;17.726;2024-03-17T01:33:45;100561.28;;;9.83;96.69
71145;BME280;58812;47.698;17.726;2024-03-17T01:36:12;100569.31;;;9.83;96.77
71145;BME280;58812;47.698;17.726;2024-03-17T01:38:37;100581.12;;;9.81;96.89
71145;BME280;58812;47.698;17.726;2024-03-17T01:41:03;100583.94;;;9.79;96.96
71145;BME280;58812;47.698;17.726;2024-03-17T01:43:29;100579.59;;;9.78;96.86
71145;BME280;58812;47.698;17.726;2024-03-17T01:45:55;100580.81;;;9.74;97.30
71145;BME280;58812;47.698;17.726;2024-03-17T01:48:21;100577.16;;;9.75;96.97
71145;BME280;58812;47.698;17.726;2024-03-17T01:50:49;100583.50;;;9.74;96.69
71145;BME280;58812;47.698;17.726;2024-03-17T01:53:17;100584.28;;;9.65;97.54
71145;BME280;58812;47.698;17.726;2024-03-17T01:55:44;100599.16;;;9.58;97.83
71145;BME280;58812;47.698;17.726;2024-03-17T01:58:09;100602.06;;;9.45;98.61
71145;BME280;58812;47.698;17.726;2024-03-17T02:00:36;100594.69;;;9.38;99.14
71145;BME280;58812;47.698;17.726;2024-03-17T02:03:04;100601.41;;;9.32;99.28
71145;BME280;58812;47.698;17.726;2024-03-17T02:05:29;100590.63;;;9.22;99.77
71145;BME280;58812;47.698;17.726;2024-03-17T02:07:55;100594.22;;;9.12;100.00
71145;BME280;58812;47.698;17.726;2024-03-17T02:10:20;100593.88;;;9.05;100.00
71145;BME280;58812;47.698;17.726;2024-03-17T02:12:47;100599.41;;;8.92;100.00
71145;BME280;58812;47.698;17.726;2024-03-17T02:15:13;100596.16;;;8.77;100.00
71145;BME280;58812;47.698;17.726;2024-03-17T02:17:39;100617.19;;;8.71;100.00
71145;BME280;58812;47.698;17.726;2024-03-17T02:20:05;100605.81;;;8.57;100.00
71145;BME280;58812;47.698;17.726;2024-03-17T02:22:36;100611.09;;;8.48;100.00
71145;BME280;58812;47.698;17.726;2024-03-17T02:25:02;100614.34;;;8.40;100.00
71145;BME280;58812;47.698;17.726;2024-03-17T02:27:28;100621.00;;;8.35;100.00
71145;BME280;58812;47.698;17.726;2024-03-17T02:29:54;100617.25;;;8.26;100.00
71145;BME280;58812;47.698;17.726;2024-03-17T02:32:19;100614.13;;;8.21;100.00
71145;BME280;58812;47.698;17.726;2024-03-17T02:34:47;100611.59;;;8.19;100.00
71145;BME280;58812;47.698;17.726;2024-03-17T02:37:13;100606.75;;;8.13;100.00
71145;BME280;58812;47.698;17.726;2024-03-17T02:39:38;100610.47;;;8.11;100.00
71145;BME280;58812;47.698;17.726;2024-03-17T02:42:05;100621.50;;;8.06;100.00
71145;BME280;58812;47.698;17.726;2024-03-17T02:44:32;100625.28;;;8.03;100.00
71145;BME280;58812;47.698;17.726;2024-03-17T02:46:58;100630.72;;;8.02;100.00
71145;BME280;58812;47.698;17.726;2024-03-17T02:49:28;100633.87;;;8.07;100.00
71145;BME280;58812;47.698;17.726;2024-03-17T02:52:01;100641.41;;;8.02;100.00
71145;BME280;58812;47.698;17.726;2024-03-17T02:54:26;100644.28;;;7.99;100.00
71145;BME280;58812;47.698;17.726;2024-03-17T02:56:51;100648.06;;;7.96;100.00
71145;BME280;58812;47.698;17.726;2024-03-17T02:59:17;100643.81;;;7.94;100.00
71145;BME280;58812;47.698;17.726;2024-03-17T03:01:43;100648.28;;;7.93;100.00
71145;BME280;58812;47.698;17.726;2024-03-17T03:04:08;100652.06;;;7.91;100.00
71145;BME280;58812;47.698;17.726;2024-03-17T03:06:34;100648.66;;;7.89;100.00
71145;BME280;58812;47.698;17.726;2024-03-17T03:09:00;100645.03;;;7.90;100.00
71145;BME280;58812;47.698;17.726;2024-03-17T03:11:25;100637.37;;;7.85;100.00
71145;BME280;58812;47.698;17.726;2024-03-17T03:13:51;100635.06;;;7.81;100.00
71145;BME280;58812;47.698;17.726;2024-03-17T03:16:16;100638.94;;;7.76;100.00
71145;BME280;58812;47.698;17.726;2024-03-17T03:18:44;100624.41;;;7.69;100.00
71145;BME280;58812;47.698;17.726;2024-03-17T03:21:10;100628.28;;;7.65;100.00
71145;BME280;58812;47.698;17.726;2024-03-17T03:23:36;100625.97;;;7.61;100.00
71145;BME280;58812;47.698;17.726;2024-03-17T03:26:02;100643.03;;;7.58;100.00
71145;BME280;58812;47.698;17.726;2024-03-17T03:28:30;100655.62;;;7.56;100.00
71145;BME280;58812;47.698;17.726;2024-03-17T03:30:56;100649.69;;;7.53;100.00
71145;BME280;58812;47.698;17.726;2024-03-17T03:33:21;100645.44;;;7.50;100.00
71145;BME280;58812;47.698;17.726;2024-03-17T03:35:47;100643.00;;;7.47;100.00
71145;BME280;58812;47.698;17.726;2024-03-17T03:38:13;100655.75;;;7.55;98.50
71145;BME280;58812;47.698;17.726;2024-03-17T03:40:39;100655.88;;;7.53;97.49
71145;BME280;58812;47.698;17.726;2024-03-17T03:43:05;100665.78;;;7.51;96.55
71145;BME280;58812;47.698;17.726;2024-03-17T03:45:31;100661.44;;;7.50;94.14
71145;BME280;58812;47.698;17.726;2024-03-17T03:47:56;100657.78;;;7.51;91.57
71145;BME280;58812;47.698;17.726;2024-03-17T03:50:22;100667.22;;;7.44;91.06
71145;BME280;58812;47.698;17.726;2024-03-17T03:52:48;100664.31;;;7.47;88.45
71145;BME280;58812;47.698;17.726;2024-03-17T03:55:16;100664.56;;;7.44;88.18
71145;BME280;58812;47.698;17.726;2024-03-17T03:57:42;100666.59;;;7.40;87.52
71145;BME280;58812;47.698;17.726;2024-03-17T04:00:08;100672.38;;;7.34;87.72
71145;BME280;58812;47.698;17.726;2024-03-17T04:02:41;100678.81;;;7.32;88.15
71145;BME280;58812;47.698;17.726;2024-03-17T04:05:07;100687.97;;;7.28;88.60
71145;BME280;58812;47.698;17.726;2024-03-17T04:07:33;100678.09;;;7.30;87.58
71145;BME280;58812;47.698;17.726;2024-03-17T04:09:59;100689.00;;;7.38;87.07
71145;BME280;58812;47.698;17.726;2024-03-17T04:12:25;100678.47;;;7.36;85.42
71145;BME280;58812;47.698;17.726;2024-03-17T04:14:51;100676.88;;;7.34;84.33
71145;BME280;58812;47.698;17.726;2024-03-17T04:17:19;100685.31;;;7.28;84.31
71145;BME280;58812;47.698;17.726;2024-03-17T04:19:47;100685.91;;;7.20;84.88
71145;BME280;58812;47.698;17.726;2024-03-17T04:22:14;100682.50;;;7.18;84.95
71145;BME280;58812;47.698;17.726;2024-03-17T04:24:39;100691.91;;;7.11;85.07
71145;BME280;58812;47.698;17.726;2024-03-17T04:27:04;100679.88;;;6.94;86.17
71145;BME280;58812;47.698;17.726;2024-03-17T04:29:30;100695.59;;;6.97;85.99
71145;BME280;58812;47.698;17.726;2024-03-17T04:31:55;100695.19;;;6.90;86.10
71145;BME280;58812;47.698;17.726;2024-03-17T04:34:21;100693.09;;;6.83;86.30
71145;BME280;58812;47.698;17.726;2024-03-17T04:36:46;100697.16;;;6.76;86.63
71145;BME280;58812;47.698;17.726;2024-03-17T04:39:12;100691.34;;;6.71;87.59
71145;BME280;58812;47.698;17.726;2024-03-17T04:41:37;100696.59;;;6.59;88.49
71145;BME280;58812;47.698;17.726;2024-03-17T04:44:06;100697.22;;;6.50;88.98
71145;BME280;58812;47.698;17.726;2024-03-17T04:46:32;100710.00;;;6.45;89.54
71145;BME280;58812;47.698;17.726;2024-03-17T04:48:57;100706.31;;;6.35;89.67
71145;BME280;58812;47.698;17.726;2024-03-17T04:51:23;100721.50;;;6.33;89.47
71145;BME280;58812;47.698;17.726;2024-03-17T04:53:48;100713.66;;;6.31;89.80
71145;BME280;58812;47.698;17.726;2024-03-17T04:56:14;100706.00;;;6.27;89.48
71145;BME280;58812;47.698;17.726;2024-03-17T04:58:39;100715.88;;;6.25;89.78
71145;BME280;58812;47.698;17.726;2024-03-17T05:01:06;100723.66;;;6.15;90.10
71145;BME280;58812;47.698;17.726;2024-03-17T05:03:32;100725.03;;;6.08;89.67
71145;BME280;58812;47.698;17.726;2024-03-17T05:06:02;100718.34;;;6.02;89.82
71145;BME280;58812;47.698;17.726;2024-03-17T05:08:29;100726.31;;;6.02;89.62
71145;BME280;58812;47.698;17.726;2024-03-17T05:11:02;100739.38;;;5.93;89.93
71145;BME280;58812;47.698;17.726;2024-03-17T05:13:32;100747.72;;;5.86;90.24
71145;BME280;58812;47.698;17.726;2024-03-17T05:15:57;100749.00;;;5.81;90.23
71145;BME280;58812;47.698;17.726;2024-03-17T05:18:24;100750.19;;;5.77;90.27
71145;BME280;58812;47.698;17.726;2024-03-17T05:21:04;100754.09;;;5.71;90.43
71145;BME280;58812;47.698;17.726;2024-03-17T05:23:31;100763.59;;;5.75;90.41
71145;BME280;58812;47.698;17.726;2024-03-17T05:25:57;100765.63;;;5.97;89.50
71145;BME280;58812;47.698;17.726;2024-03-17T05:28:24;100761.28;;;6.09;88.00
71145;BME280;58812;47.698;17.726;2024-03-17T05:30:50;100761.63;;;6.30;86.43
71145;BME280;58812;47.698;17.726;2024-03-17T05:33:18;100772.13;;;6.44;85.73
71145;BME280;58812;47.698;17.726;2024-03-17T05:35:55;100780.44;;;6.52;85.16
71145;BME280;58812;47.698;17.726;2024-03-17T05:38:22;100785.63;;;6.66;84.51
71145;BME280;58812;47.698;17.726;2024-03-17T05:43:28;100787.62;;;6.76;83.22
71145;BME280;58812;47.698;17.726;2024-03-17T05:45:56;100786.69;;;6.51;84.12
71145;BME280;58812;47.698;17.726;2024-03-17T05:48:22;100788.09;;;6.44;84.88
71145;BME280;58812;47.698;17.726;2024-03-17T05:50:49;100786.19;;;6.33;84.96
71145;BME280;58812;47.698;17.726;2024-03-17T05:53:16;100785.97;;;6.24;84.79
71145;BME280;58812;47.698;17.726;2024-03-17T05:55:43;100785.97;;;6.24;84.34
71145;BME280;58812;47.698;17.726;2024-03-17T05:58:10;100782.25;;;6.39;83.73
71145;BME280;58812;47.698;17.726;2024-03-17T06:00:39;100775.84;;;6.54;83.27
71145;BME280;58812;47.698;17.726;2024-03-17T06:03:06;100776.37;;;6.72;82.53
71145;BME280;58812;47.698;17.726;2024-03-17T06:05:36;100782.72;;;6.82;80.57
71145;BME280;58812;47.698;17.726;2024-03-17T06:08:03;100788.44;;;7.02;79.47
71145;BME280;58812;47.698;17.726;2024-03-17T06:10:30;100794.56;;;7.39;77.86
71145;BME280;58812;47.698;17.726;2024-03-17T06:12:59;100796.44;;;7.49;76.95
71145;BME280;58812;47.698;17.726;2024-03-17T06:15:25;100806.25;;;7.49;74.71
71145;BME280;58812;47.698;17.726;2024-03-17T06:17:51;100799.97;;;7.50;74.21
71145;BME280;58812;47.698;17.726;2024-03-17T06:20:21;100811.56;;;7.73;73.13
71145;BME280;58812;47.698;17.726;2024-03-17T06:22:47;100802.69;;;7.96;73.27
71145;BME280;58812;47.698;17.726;2024-03-17T06:25:13;100811.84;;;8.27;71.93
71145;BME280;58812;47.698;17.726;2024-03-17T06:27:38;100815.63;;;7.90;69.09
71145;BME280;58812;47.698;17.726;2024-03-17T06:30:04;100821.97;;;8.11;69.75
71145;BME280;58812;47.698;17.726;2024-03-17T06:32:30;100824.41;;;8.03;68.32
71145;BME280;58812;47.698;17.726;2024-03-17T06:35:01;100820.91;;;8.60;67.58
71145;BME280;58812;47.698;17.726;2024-03-17T06:37:26;100824.78;;;8.67;66.88
71145;BME280;58812;47.698;17.726;2024-03-17T06:39:52;100826.72;;;8.65;66.81
71145;BME280;58812;47.698;17.726;2024-03-17T06:42:17;100831.09;;;8.77;66.44
71145;BME280;58812;47.698;17.726;2024-03-17T06:44:42;100834.72;;;8.99;66.38
71145;BME280;58812;47.698;17.726;2024-03-17T06:47:08;100841.13;;;9.19;66.03
71145;BME280;58812;47.698;17.726;2024-03-17T06:49:33;100831.44;;;9.06;65.04
71145;BME280;58812;47.698;17.726;2024-03-17T06:51:58;100842.25;;;9.16;64.35
71145;BME280;58812;47.698;17.726;2024-03-17T06:54:24;100841.28;;;9.06;63.72
71145;BME280;58812;47.698;17.726;2024-03-17T06:56:49;100851.84;;;9.73;62.92
71145;BME280;58812;47.698;17.726;2024-03-17T06:59:17;100848.78;;;9.23;62.79
71145;BME280;58812;47.698;17.726;2024-03-17T07:01:42;100859.53;;;9.99;61.66
71145;BME280;58812;47.698;17.726;2024-03-17T07:04:07;100844.16;;;9.36;61.45
71145;BME280;58812;47.698;17.726;2024-03-17T07:06:33;100860.56;;;10.07;60.60
71145;BME280;58812;47.698;17.726;2024-03-17T07:08:58;100849.22;;;9.62;59.93
71145;BME280;58812;47.698;17.726;2024-03-17T07:11:24;100858.41;;;10.01;60.17
71145;BME280;58812;47.698;17.726;2024-03-17T07:13:50;100857.59;;;10.42;58.76
71145;BME280;58812;47.698;17.726;2024-03-17T07:16:19;100859.63;;;10.71;57.92
71145;BME280;58812;47.698;17.726;2024-03-17T07:18:46;100856.25;;;10.27;58.61
71145;BME280;58812;47.698;17.726;2024-03-17T07:21:11;100855.62;;;10.03;58.53
71145;BME280;58812;47.698;17.726;2024-03-17T07:23:37;100855.78;;;9.58;58.07
71145;BME280;58812;47.698;17.726;2024-03-17T07:26:03;100855.22;;;10.07;56.75
71145;BME280;58812;47.698;17.726;2024-03-17T07:28:32;100860.03;;;10.46;57.42
71145;BME280;58812;47.698;17.726;2024-03-17T07:30:58;100854.13;;;11.03;56.81
71145;BME280;58812;47.698;17.726;2024-03-17T07:33:25;100857.44;;;10.02;57.09
71145;BME280;58812;47.698;17.726;2024-03-17T07:35:55;100858.22;;;10.77;55.85
71145;BME280;58812;47.698;17.726;2024-03-17T07:38:29;100861.00;;;10.96;55.82
71145;BME280;58812;47.698;17.726;2024-03-17T07:41:05;100863.13;;;10.92;55.34
71145;BME280;58812;47.698;17.726;2024-03-17T07:43:35;100860.94;;;11.17;54.63
71145;BME280;58812;47.698;17.726;2024-03-17T07:46:04;100863.97;;;10.93;54.83
71145;BME280;58812;47.698;17.726;2024-03-17T07:48:31;100853.53;;;10.38;54.79
71145;BME280;58812;47.698;17.726;2024-03-17T07:51:00;100854.09;;;10.93;54.79
71145;BME280;58812;47.698;17.726;2024-03-17T07:53:35;100859.31;;;10.64;54.09
71145;BME280;58812;47.698;17.726;2024-03-17T07:56:11;100862.16;;;10.73;54.21
71145;BME280;58812;47.698;17.726;2024-03-17T07:58:38;100865.97;;;11.01;53.50
71145;BME280;58812;47.698;17.726;2024-03-17T08:01:14;100865.88;;;11.12;54.73
71145;BME280;58812;47.698;17.726;2024-03-17T08:03:41;100871.75;;;11.56;53.02
71145;BME280;58812;47.698;17.726;2024-03-17T08:06:09;100861.00;;;11.86;53.17
71145;BME280;58812;47.698;17.726;2024-03-17T08:08:36;100863.94;;;12.02;51.95
71145;BME280;58812;47.698;17.726;2024-03-17T08:11:02;100867.81;;;11.50;52.10
71145;BME280;58812;47.698;17.726;2024-03-17T08:13:31;100859.66;;;12.39;51.56
71145;BME280;58812;47.698;17.726;2024-03-17T08:16:02;100867.66;;;12.77;50.29
71145;BME280;58812;47.698;17.726;2024-03-17T08:18:27;100864.66;;;12.24;51.21
71145;BME280;58812;47.698;17.726;2024-03-17T08:20:53;100855.66;;;12.62;51.14
71145;BME280;58812;47.698;17.726;2024-03-17T08:23:20;100859.97;;;12.26;50.15
71145;BME280;58812;47.698;17.726;2024-03-17T08:25:59;100857.75;;;11.92;51.35
71145;BME280;58812;47.698;17.726;2024-03-17T08:28:26;100859.25;;;11.75;51.20
71145;BME280;58812;47.698;17.726;2024-03-17T08:30:53;100860.28;;;12.23;50.27
71145;BME280;58812;47.698;17.726;2024-03-17T08:33:19;100853.03;;;12.43;50.12
71145;BME280;58812;47.698;17.726;2024-03-17T08:35:58;100860.37;;;12.50;49.65
71145;BME280;58812;47.698;17.726;2024-03-17T08:38:25;100876.09;;;12.36;48.67
71145;BME280;58812;47.698;17.726;2024-03-17T08:41:11;100869.47;;;12.01;49.25
71145;BME280;58812;47.698;17.726;2024-03-17T08:43:38;100862.12;;;11.93;48.64
71145;BME280;58812;47.698;17.726;2024-03-17T08:46:06;100858.56;;;12.32;48.62
71145;BME280;58812;47.698;17.726;2024-03-17T08:48:33;100859.25;;;12.43;47.87
71145;BME280;58812;47.698;17.726;2024-03-17T08:51:00;100858.69;;;12.96;48.47
71145;BME280;58812;47.698;17.726;2024-03-17T08:53:27;100858.22;;;12.64;48.84
71145;BME280;58812;47.698;17.726;2024-03-17T08:55:53;100861.09;;;12.52;48.36
71145;BME280;58812;47.698;17.726;2024-03-17T08:58:19;100866.06;;;12.28;48.16
71145;BME280;58812;47.698;17.726;2024-03-17T09:00:45;100866.88;;;12.38;48.47
71145;BME280;58812;47.698;17.726;2024-03-17T09:03:10;100870.16;;;12.32;47.98
71145;BME280;58812;47.698;17.726;2024-03-17T09:05:38;100862.94;;;12.42;49.16
71145;BME280;58812;47.698;17.726;2024-03-17T09:08:03;100865.72;;;12.50;48.20
71145;BME280;58812;47.698;17.726;2024-03-17T09:10:29;100868.59;;;12.20;48.72
71145;BME280;58812;47.698;17.726;2024-03-17T09:12:54;100855.66;;;12.62;48.81
71145;BME280;58812;47.698;17.726;2024-03-17T09:15:20;100863.53;;;13.20;47.25
71145;BME280;58812;47.698;17.726;2024-03-17T09:17:46;100864.94;;;12.87;46.80
71145;BME280;58812;47.698;17.726;2024-03-17T09:20:12;100864.66;;;12.90;46.02
71145;BME280;58812;47.698;17.726;2024-03-17T09:22:41;100852.56;;;12.67;45.60
71145;BME280;58812;47.698;17.726;2024-03-17T09:25:10;100868.41;;;12.70;45.31
71145;BME280;58812;47.698;17.726;2024-03-17T09:27:36;100880.38;;;13.95;44.01
71145;BME280;58812;47.698;17.726;2024-03-17T09:30:03;100866.94;;;13.50;44.05
71145;BME280;58812;47.698;17.726;2024-03-17T09:32:31;100872.41;;;12.46;44.55
71145;BME280;58812;47.698;17.726;2024-03-17T09:34:57;100871.88;;;13.27;43.82
71145;BME280;58812;47.698;17.726;2024-03-17T09:37:23;100872.69;;;13.37;42.89
71145;BME280;58812;47.698;17.726;2024-03-17T09:39:48;100869.59;;;13.77;42.59
71145;BME280;58812;47.698;17.726;2024-03-17T09:42:19;100875.06;;;14.03;42.01
71145;BME280;58812;47.698;17.726;2024-03-17T09:44:48;100871.97;;;13.80;41.86
71145;BME280;58812;47.698;17.726;2024-03-17T09:47:18;100864.13;;;13.87;42.14
71145;BME280;58812;47.698;17.726;2024-03-17T09:49:46;100866.34;;;13.74;42.41
71145;BME280;58812;47.698;17.726;2024-03-17T09:52:21;100864.03;;;14.32;41.27
71145;BME280;58812;47.698;17.726;2024-03-17T09:54:51;100866.84;;;13.42;42.02
71145;BME280;58812;47.698;17.726;2024-03-17T09:57:19;100863.87;;;13.62;40.81
71145;BME280;58812;47.698;17.726;2024-03-17T09:59:53;100852.44;;;13.33;41.17
71145;BME280;58812;47.698;17.726;2024-03-17T10:02:22;100846.38;;;13.31;41.97
71145;BME280;58812;47.698;17.726;2024-03-17T10:04:48;100853.00;;;13.82;41.83
71145;BME280;58812;47.698;17.726;2024-03-17T10:07:14;100848.44;;;14.36;41.81
71145;BME280;58812;47.698;17.726;2024-03-17T10:09:40;100856.59;;;13.73;41.60
71145;BME280;58812;47.698;17.726;2024-03-17T10:12:25;100843.84;;;13.29;42.02
71145;BME280;58812;47.698;17.726;2024-03-17T10:15:00;100850.25;;;14.79;40.45
71145;BME280;58812;47.698;17.726;2024-03-17T10:17:32;100848.13;;;14.91;39.37
71145;BME280;58812;47.698;17.726;2024-03-17T10:20:17;100842.75;;;14.91;38.08
71145;BME280;58812;47.698;17.726;2024-03-17T10:23:06;100843.50;;;13.42;40.36
71145;BME280;58812;47.698;17.726;2024-03-17T10:25:42;100849.81;;;14.04;39.80
71145;BME280;58812;47.698;17.726;2024-03-17T10:28:12;100846.87;;;14.51;39.10
71145;BME280;58812;47.698;17.726;2024-03-17T10:30:38;100843.91;;;13.65;40.46
71145;BME280;58812;47.698;17.726;2024-03-17T10:33:05;100844.00;;;13.91;39.89
71145;BME280;58812;47.698;17.726;2024-03-17T10:35:34;100846.28;;;13.86;39.64
71145;BME280;58812;47.698;17.726;2024-03-17T10:38:03;100858.50;;;14.16;39.86
71145;BME280;58812;47.698;17.726;2024-03-17T10:40:31;100854.31;;;14.39;39.75
71145;BME280;58812;47.698;17.726;2024-03-17T10:42:59;100845.72;;;14.36;39.24
71145;BME280;58812;47.698;17.726;2024-03-17T10:45:26;100856.78;;;13.89;40.54
71145;BME280;58812;47.698;17.726;2024-03-17T10:47:52;100842.84;;;13.94;40.38
71145;BME280;58812;47.698;17.726;2024-03-17T10:50:22;100836.25;;;14.32;39.94
71145;BME280;58812;47.698;17.726;2024-03-17T10:52:49;100844.97;;;14.26;40.66
71145;BME280;58812;47.698;17.726;2024-03-17T10:55:23;100845.66;;;13.56;40.25
71145;BME280;58812;47.698;17.726;2024-03-17T10:57:50;100829.87;;;14.33;40.45
71145;BME280;58812;47.698;17.726;2024-03-17T11:00:18;100829.06;;;13.79;40.57
71145;BME280;58812;47.698;17.726;2024-03-17T11:02:45;100838.75;;;14.07;40.30
71145;BME280;58812;47.698;17.726;2024-03-17T11:05:24;100830.34;;;13.57;40.75
71145;BME280;58812;47.698;17.726;2024-03-17T11:07:54;100833.00;;;13.84;40.18
71145;BME280;58812;47.698;17.726;2024-03-17T11:10:27;100820.91;;;14.06;39.36
71145;BME280;58812;47.698;17.726;2024-03-17T11:12:58;100828.00;;;15.11;38.83
71145;BME280;58812;47.698;17.726;2024-03-17T11:20:39;100827.91;;;13.81;39.29
71145;BME280;58812;47.698;17.726;2024-03-17T11:23:05;100824.84;;;14.12;39.63
71145;BME280;58812;47.698;17.726;2024-03-17T11:28:02;100823.31;;;14.79;39.26
71145;BME280;58812;47.698;17.726;2024-03-17T11:39:07;100807.16;;;15.30;38.76
71145;BME280;58812;47.698;17.726;2024-03-17T11:42:05;100811.22;;;14.13;39.31
71145;BME280;58812;47.698;17.726;2024-03-17T11:44:36;100808.91;;;14.19;39.14
71145;BME280;58812;47.698;17.726;2024-03-17T11:47:05;100803.91;;;14.24;39.04
71145;BME280;58812;47.698;17.726;2024-03-17T11:49:41;100803.34;;;14.20;39.40
71145;BME280;58812;47.698;17.726;2024-03-17T11:52:15;100786.66;;;14.60;39.49
71145;BME280;58812;47.698;17.726;2024-03-17T11:54:45;100794.41;;;14.63;39.39
71145;BME280;58812;47.698;17.726;2024-03-17T11:57:13;100789.47;;;14.33;39.44
71145;BME280;58812;47.698;17.726;2024-03-17T11:59:40;100792.13;;;14.77;39.61
71145;BME280;58812;47.698;17.726;2024-03-17T12:02:29;100798.69;;;14.48;38.75
71145;BME280;58812;47.698;17.726;2024-03-17T12:04:57;100778.16;;;14.03;40.07
71145;BME280;58812;47.698;17.726;2024-03-17T12:07:23;100771.41;;;14.25;40.11
71145;BME280;58812;47.698;17.726;2024-03-17T12:09:55;100759.78;;;15.27;39.07
71145;BME280;58812;47.698;17.726;2024-03-17T12:12:26;100767.75;;;15.37;38.83
71145;BME280;58812;47.698;17.726;2024-03-17T12:15:02;100763.25;;;13.91;39.10
71145;BME280;58812;47.698;17.726;2024-03-17T12:17:28;100757.22;;;13.97;38.52
71145;BME280;58812;47.698;17.726;2024-03-17T12:19:54;100758.53;;;14.63;38.92
71145;BME280;58812;47.698;17.726;2024-03-17T12:22:22;100740.62;;;14.28;39.37
71145;BME280;58812;47.698;17.726;2024-03-17T12:24:49;100758.13;;;14.24;40.01
71145;BME280;58812;47.698;17.726;2024-03-17T12:27:17;100743.19;;;14.63;39.50
71145;BME280;58812;47.698;17.726;2024-03-17T12:29:44;100741.19;;;14.39;39.55
71145;BME280;58812;47.698;17.726;2024-03-17T12:34:36;100733.38;;;14.02;39.92
71145;BME280;58812;47.698;17.726;2024-03-17T12:37:02;100722.75;;;13.57;40.38
71145;BME280;58812;47.698;17.726;2024-03-17T12:39:34;100724.13;;;14.57;39.07
71145;BME280;58812;47.698;17.726;2024-03-17T12:42:14;100706.69;;;14.35;38.69
71145;BME280;58812;47.698;17.726;2024-03-17T12:44:47;100715.41;;;14.63;38.11
71145;BME280;58812;47.698;17.726;2024-03-17T12:47:17;100705.13;;;14.58;38.01
71145;BME280;58812;47.698;17.726;2024-03-17T12:49:49;100707.53;;;14.69;37.83
71145;BME280;58812;47.698;17.726;2024-03-17T12:55:06;100693.31;;;13.55;39.65
71145;BME280;58812;47.698;17.726;2024-03-17T12:57:52;100685.28;;;14.67;39.44
71145;BME280;58812;47.698;17.726;2024-03-17T13:00:36;100694.00;;;15.12;39.01
71145;BME280;58812;47.698;17.726;2024-03-17T13:03:04;100684.75;;;14.64;38.16
71145;BME280;58812;47.698;17.726;2024-03-17T13:05:31;100683.88;;;13.95;39.53
71145;BME280;58812;47.698;17.726;2024-03-17T13:07:57;100688.78;;;14.00;39.43
71145;BME280;58812;47.698;17.726;2024-03-17T13:10:25;100676.66;;;13.96;38.99